Time;durP1;ratioP1;P1;durP2;ratioP2;P2;SDS_P1;SDS_P2;PMS_P1;PMS_P2;Temp;Humidity;BMP_temperature;BMP_pressure;BME280_temperature;BME280_humidity;BME280_pressure;Samples;Min_cycle;Max_cycle;Signal;HPM_P1;HPM_P2
2022/11/15 00:01:46;;;;;;;4.73;4.13;;;9.90;99.90;;;;;;477275;249;28057;-68
2022/11/15 00:03:48;;;;;;;4.20;3.80;;;9.90;99.90;;;;;;477240;249;28044;-65
2022/11/15 00:05:49;;;;;;;3.77;3.40;;;10.00;99.90;;;;;;477213;249;28107;-66
2022/11/15 00:07:50;;;;;;;4.93;3.97;;;10.00;99.90;;;;;;477205;249;29538;-66
2022/11/15 00:09:51;;;;;;;4.53;4.13;;;10.00;99.90;;;;;;477230;249;28148;-66
2022/11/15 00:11:53;;;;;;;4.33;3.93;;;10.00;99.90;;;;;;477271;249;28163;-67
2022/11/15 00:13:54;;;;;;;4.60;4.17;;;10.00;99.90;;;;;;477255;249;28503;-65
2022/11/15 00:15:55;;;;;;;4.97;3.90;;;10.00;99.90;;;;;;477241;249;28143;-65
2022/11/15 00:17:56;;;;;;;6.00;4.00;;;10.00;99.90;;;;;;477255;249;27911;-66
2022/11/15 00:19:58;;;;;;;3.80;3.50;;;10.00;99.90;;;;;;477266;249;28057;-66
2022/11/15 00:21:59;;;;;;;4.40;3.97;;;10.10;99.90;;;;;;477257;249;27763;-67
2022/11/15 00:24:00;;;;;;;7.77;4.43;;;10.10;99.90;;;;;;477235;249;28067;-65
2022/11/15 00:26:01;;;;;;;4.20;3.57;;;10.20;99.90;;;;;;477221;249;28079;-66
2022/11/15 00:28:03;;;;;;;5.07;3.93;;;10.20;99.90;;;;;;477240;249;28429;-66
2022/11/15 00:30:04;;;;;;;4.67;4.10;;;10.10;99.90;;;;;;477269;249;27916;-66
2022/11/15 00:32:05;;;;;;;4.77;3.80;;;10.10;99.90;;;;;;477249;249;27581;-66
2022/11/15 00:34:06;;;;;;;3.70;3.20;;;10.20;99.90;;;;;;477249;249;28518;-65
2022/11/15 00:36:09;;;;;;;6.10;3.97;;;10.10;99.90;;;;;;477242;249;28126;-66
2022/11/15 00:38:09;;;;;;;4.63;4.23;;;10.20;99.90;;;;;;477217;249;29054;-65
2022/11/15 00:40:10;;;;;;;4.77;3.87;;;10.20;99.90;;;;;;477288;249;27870;-65
2022/11/15 00:42:11;;;;;;;4.63;4.17;;;10.20;99.90;;;;;;477286;249;28014;-67
2022/11/15 00:44:13;;;;;;;5.80;3.90;;;10.20;99.90;;;;;;477287;249;28069;-65
2022/11/15 00:46:14;;;;;;;3.57;3.27;;;10.30;99.90;;;;;;477256;249;28206;-65
2022/11/15 00:48:15;;;;;;;4.30;3.90;;;10.30;99.90;;;;;;477235;249;27861;-65
2022/11/15 00:50:16;;;;;;;4.93;4.27;;;10.20;99.90;;;;;;477270;249;28104;-66
2022/11/15 00:52:18;;;;;;;6.47;3.73;;;10.20;99.90;;;;;;477268;249;28319;-67
2022/11/15 00:54:19;;;;;;;4.40;4.00;;;10.10;99.90;;;;;;477192;249;27992;-65
2022/11/15 00:56:20;;;;;;;3.93;3.50;;;10.10;99.90;;;;;;477177;249;28053;-67
2022/11/15 00:58:21;;;;;;;3.60;3.30;;;10.00;99.90;;;;;;477262;249;28894;-66
2022/11/15 01:00:23;;;;;;;4.00;3.60;;;10.10;99.90;;;;;;477228;249;28400;-66
2022/11/15 01:02:24;;;;;;;3.50;3.20;;;10.10;99.90;;;;;;477264;249;28154;-66
2022/11/15 01:04:25;;;;;;;3.77;3.47;;;10.20;99.90;;;;;;477176;249;28022;-65
2022/11/15 01:06:26;;;;;;;3.77;3.43;;;10.20;99.90;;;;;;477212;249;27985;-66
2022/11/15 01:08:28;;;;;;;4.00;3.43;;;10.30;99.90;;;;;;477225;249;28051;-69
2022/11/15 01:10:29;;;;;;;5.47;3.63;;;10.30;99.90;;;;;;477254;249;27975;-65
2022/11/15 01:12:30;;;;;;;3.93;3.50;;;10.40;99.90;;;;;;477142;249;28145;-66
2022/11/15 01:14:31;;;;;;;4.23;3.60;;;10.40;99.90;;;;;;477038;249;27972;-65
2022/11/15 01:16:33;;;;;;;3.80;3.50;;;10.40;99.90;;;;;;476983;249;27899;-65
2022/11/15 01:18:34;;;;;;;3.67;3.37;;;10.40;99.90;;;;;;477066;249;28235;-67
2022/11/15 01:20:35;;;;;;;3.90;3.53;;;10.50;99.90;;;;;;477229;249;28226;-67
2022/11/15 01:22:36;;;;;;;4.27;3.57;;;10.50;99.90;;;;;;477197;249;28118;-66
2022/11/15 01:24:38;;;;;;;4.73;4.07;;;10.50;99.90;;;;;;477217;249;28831;-65
2022/11/15 01:26:39;;;;;;;4.60;3.53;;;10.50;99.90;;;;;;477259;249;28078;-65
2022/11/15 01:28:40;;;;;;;4.13;3.60;;;10.50;99.90;;;;;;477252;249;28101;-68
2022/11/15 01:30:42;;;;;;;4.73;3.50;;;10.50;99.90;;;;;;477240;249;28076;-66
2022/11/15 01:32:43;;;;;;;4.47;3.37;;;10.50;99.90;;;;;;477228;247;28080;-66
2022/11/15 01:34:44;;;;;;;4.20;3.80;;;10.60;99.90;;;;;;477225;249;27996;-66
2022/11/15 01:36:45;;;;;;;3.70;3.40;;;10.50;99.90;;;;;;477255;249;27871;-65
2022/11/15 01:38:47;;;;;;;4.30;3.77;;;10.50;99.90;;;;;;477276;249;28215;-67
2022/11/15 01:40:48;;;;;;;3.30;3.10;;;10.50;99.90;;;;;;477255;249;27948;-65
2022/11/15 01:42:49;;;;;;;3.70;3.40;;;10.40;99.90;;;;;;477242;249;27768;-66
2022/11/15 01:44:50;;;;;;;5.83;4.13;;;10.40;99.90;;;;;;477267;249;28476;-68
2022/11/15 01:46:52;;;;;;;5.37;3.50;;;10.40;99.90;;;;;;477277;249;28551;-65
2022/11/15 01:48:53;;;;;;;3.60;3.27;;;10.50;99.90;;;;;;477248;249;28637;-66
2022/11/15 01:50:54;;;;;;;4.60;3.80;;;10.50;99.90;;;;;;477242;249;28382;-65
2022/11/15 01:52:55;;;;;;;4.20;3.70;;;10.50;99.90;;;;;;477231;249;28634;-66
2022/11/15 01:54:57;;;;;;;3.83;3.43;;;10.50;99.90;;;;;;477286;249;28112;-71
2022/11/15 01:56:58;;;;;;;3.60;3.30;;;10.50;99.90;;;;;;477275;249;27519;-65
2022/11/15 01:58:59;;;;;;;4.13;3.83;;;10.60;99.90;;;;;;477261;249;28115;-66
2022/11/15 02:01:00;;;;;;;4.27;3.67;;;10.50;99.90;;;;;;477262;249;27963;-65
2022/11/15 02:03:02;;;;;;;4.40;3.60;;;10.40;99.90;;;;;;477235;249;27981;-66
2022/11/15 02:05:03;;;;;;;3.83;3.50;;;10.50;99.90;;;;;;477280;249;28015;-69
2022/11/15 02:07:04;;;;;;;4.00;3.70;;;10.50;99.90;;;;;;477257;249;27956;-66
2022/11/15 02:09:05;;;;;;;3.97;3.57;;;10.50;99.90;;;;;;477240;249;28131;-66
2022/11/15 02:11:07;;;;;;;4.80;3.57;;;10.50;99.90;;;;;;477230;249;28067;-66
2022/11/15 02:13:08;;;;;;;3.97;3.57;;;10.50;99.90;;;;;;477260;249;28547;-65
2022/11/15 02:15:09;;;;;;;4.83;3.90;;;10.50;99.90;;;;;;477273;249;28602;-69
2022/11/15 02:17:10;;;;;;;3.93;3.40;;;10.50;99.90;;;;;;477272;249;28536;-65
2022/11/15 02:19:12;;;;;;;3.47;3.17;;;10.50;99.90;;;;;;477247;247;28009;-66
2022/11/15 02:21:13;;;;;;;3.60;3.30;;;10.60;99.90;;;;;;477229;249;28159;-65
2022/11/15 02:23:14;;;;;;;3.60;3.30;;;10.60;99.90;;;;;;477274;249;27528;-65
2022/11/15 02:25:15;;;;;;;4.03;3.63;;;10.60;99.90;;;;;;477267;249;28073;-69
2022/11/15 02:27:17;;;;;;;4.67;3.90;;;10.50;99.90;;;;;;477253;249;27670;-65
2022/11/15 02:29:18;;;;;;;3.93;3.47;;;10.50;99.90;;;;;;477253;249;28011;-67
2022/11/15 02:31:19;;;;;;;5.13;4.03;;;10.50;99.90;;;;;;477261;249;27856;-65
2022/11/15 02:33:20;;;;;;;4.27;3.77;;;10.50;99.90;;;;;;477299;249;27816;-65
2022/11/15 02:35:22;;;;;;;3.33;3.03;;;10.40;99.90;;;;;;477299;249;27974;-67
2022/11/15 02:37:23;;;;;;;4.00;3.63;;;10.40;99.90;;;;;;477254;249;28533;-66
2022/11/15 02:39:24;;;;;;;4.87;3.50;;;10.50;99.90;;;;;;477277;249;28201;-66
2022/11/15 02:41:25;;;;;;;4.73;3.53;;;10.40;99.90;;;;;;477264;249;28724;-66
2022/11/15 02:45:46;;;;;;;3.70;3.40;;;10.40;99.90;;;;;;477244;249;28402;-67
2022/11/15 02:47:47;;;;;;;3.17;2.87;;;10.40;99.90;;;;;;477259;249;28191;-69
2022/11/15 02:49:49;;;;;;;4.03;3.50;;;10.50;99.90;;;;;;477265;249;28196;-65
2022/11/15 02:51:50;;;;;;;4.90;3.77;;;10.50;99.90;;;;;;477269;249;27891;-66
2022/11/15 02:53:51;;;;;;;3.77;3.00;;;10.50;99.90;;;;;;477232;249;27496;-66
2022/11/15 02:55:52;;;;;;;3.47;3.17;;;10.60;99.90;;;;;;477236;249;27893;-66
2022/11/15 02:57:54;;;;;;;4.53;3.50;;;10.60;99.90;;;;;;477290;249;27926;-69
2022/11/15 02:59:55;;;;;;;3.00;2.80;;;10.50;99.90;;;;;;477230;249;27964;-65
2022/11/15 03:01:56;;;;;;;3.23;2.93;;;10.60;99.90;;;;;;477256;249;28043;-66
2022/11/15 03:03:57;;;;;;;3.57;3.27;;;10.50;99.90;;;;;;477231;249;27608;-66
2022/11/15 03:05:59;;;;;;;4.07;3.77;;;10.50;99.90;;;;;;477205;249;27892;-65
2022/11/15 03:08:00;;;;;;;4.20;3.30;;;10.60;99.90;;;;;;477282;249;27992;-69
2022/11/15 03:10:01;;;;;;;3.63;2.97;;;10.60;99.90;;;;;;477273;249;28141;-66
2022/11/15 03:12:02;;;;;;;5.53;3.10;;;10.60;99.90;;;;;;477242;249;28505;-66
2022/11/15 03:14:04;;;;;;;4.37;3.13;;;10.60;99.90;;;;;;477228;249;28520;-65
2022/11/15 03:16:05;;;;;;;3.50;3.10;;;10.60;99.90;;;;;;477213;249;28519;-66
2022/11/15 03:18:06;;;;;;;3.40;3.10;;;10.60;99.90;;;;;;477286;249;28019;-69
2022/11/15 03:20:08;;;;;;;3.17;2.87;;;10.60;99.90;;;;;;477257;249;28094;-65
2022/11/15 03:22:09;;;;;;;3.83;3.27;;;10.60;99.90;;;;;;477251;249;28039;-66
2022/11/15 03:24:10;;;;;;;3.47;3.17;;;10.60;99.90;;;;;;477232;249;27967;-65
2022/11/15 03:26:11;;;;;;;3.63;3.27;;;10.60;99.90;;;;;;477232;249;28086;-65
2022/11/15 03:28:13;;;;;;;3.70;3.40;;;10.60;99.90;;;;;;477262;249;28098;-67
2022/11/15 03:30:14;;;;;;;3.40;3.10;;;10.60;99.90;;;;;;477267;249;27955;-65
2022/11/15 03:32:15;;;;;;;3.37;3.07;;;10.60;99.90;;;;;;477260;249;28038;-66
2022/11/15 03:34:16;;;;;;;3.87;2.80;;;10.60;99.90;;;;;;477201;249;28154;-65
2022/11/15 03:36:18;;;;;;;3.23;2.93;;;10.60;99.90;;;;;;477252;249;28627;-65
2022/11/15 03:38:19;;;;;;;4.60;3.57;;;10.60;99.90;;;;;;477278;249;28092;-68
2022/11/15 03:40:20;;;;;;;2.93;2.70;;;10.60;99.90;;;;;;477276;249;28453;-66
2022/11/15 03:42:21;;;;;;;2.90;2.70;;;10.60;99.90;;;;;;477212;249;27976;-66
2022/11/15 03:44:23;;;;;;;3.07;2.70;;;10.60;99.90;;;;;;477173;249;28027;-66
2022/11/15 03:46:24;;;;;;;3.03;2.70;;;10.60;99.90;;;;;;477251;249;28197;-66
2022/11/15 03:48:25;;;;;;;2.77;2.57;;;10.60;99.90;;;;;;477282;249;28005;-69
2022/11/15 03:50:26;;;;;;;3.80;2.80;;;10.60;99.90;;;;;;477250;249;28118;-65
2022/11/15 03:52:28;;;;;;;2.87;2.63;;;10.60;99.90;;;;;;477264;249;28103;-67
2022/11/15 03:54:29;;;;;;;2.83;2.63;;;10.60;99.90;;;;;;477245;249;27979;-65
2022/11/15 03:56:30;;;;;;;2.73;2.53;;;10.60;99.90;;;;;;477236;249;28017;-65
2022/11/15 03:58:31;;;;;;;2.70;2.50;;;10.60;99.90;;;;;;477274;249;27662;-69
2022/11/15 04:00:33;;;;;;;2.67;2.47;;;10.60;99.90;;;;;;477269;249;28509;-66
2022/11/15 04:02:34;;;;;;;3.00;2.70;;;10.60;99.90;;;;;;477254;249;28545;-66
2022/11/15 04:04:35;;;;;;;3.87;2.60;;;10.60;99.90;;;;;;477216;249;28570;-66
2022/11/15 04:06:36;;;;;;;2.50;2.30;;;10.60;99.90;;;;;;477217;249;28226;-65
2022/11/15 04:08:38;;;;;;;2.80;2.60;;;10.60;99.90;;;;;;477285;249;28135;-69
2022/11/15 04:10:39;;;;;;;3.60;2.90;;;10.60;99.90;;;;;;477294;249;28076;-65
2022/11/15 04:12:42;;;;;;;2.50;2.40;;;10.50;99.90;;;;;;477280;249;27874;-66
2022/11/15 04:15:06;;;;;;;2.70;2.53;;;10.50;99.90;;;;;;477154;249;28124;-65
2022/11/15 04:16:43;;;;;;;2.80;2.60;;;10.60;99.90;;;;;;475674;249;27909;-66
2022/11/15 04:18:44;;;;;;;2.83;2.63;;;10.50;99.90;;;;;;477271;249;27970;-70
2022/11/15 04:25:24;;;;;;;2.47;2.33;;;10.50;99.90;;;;;;477267;249;28797;-68
2022/11/15 04:27:25;;;;;;;2.63;2.43;;;10.40;99.90;;;;;;477264;249;28439;-66
2022/11/15 04:29:35;;;;;;;2.90;2.70;;;10.40;99.90;;;;;;477251;249;27988;-67
2022/11/15 04:31:37;;;;;;;2.50;2.30;;;10.40;99.90;;;;;;477269;249;28599;-66
2022/11/15 04:33:38;;;;;;;2.67;2.50;;;10.40;99.90;;;;;;477149;249;28571;-65
2022/11/15 04:35:39;;;;;;;2.33;2.13;;;10.40;99.90;;;;;;477287;249;27972;-66
2022/11/15 04:37:40;;;;;;;2.97;2.67;;;10.40;99.90;;;;;;477285;249;27865;-68
2022/11/15 04:39:42;;;;;;;2.33;2.20;;;10.30;99.90;;;;;;477255;249;27717;-66
2022/11/15 04:41:43;;;;;;;2.77;2.47;;;10.30;99.90;;;;;;477248;249;27667;-66
2022/11/15 04:43:44;;;;;;;2.50;2.30;;;10.30;99.90;;;;;;477237;249;27515;-65
2022/11/15 04:45:45;;;;;;;3.07;2.70;;;10.20;99.90;;;;;;477304;249;28104;-66
2022/11/15 04:47:47;;;;;;;2.63;2.43;;;10.20;99.90;;;;;;477236;249;27917;-68
2022/11/15 04:49:48;;;;;;;2.30;2.10;;;10.10;99.90;;;;;;477225;249;28090;-65
2022/11/15 04:51:49;;;;;;;2.30;2.10;;;10.10;99.90;;;;;;477248;249;27875;-65
2022/11/15 04:53:50;;;;;;;2.40;2.20;;;10.10;99.90;;;;;;477237;249;28468;-65
2022/11/15 04:55:52;;;;;;;2.70;2.50;;;10.10;99.90;;;;;;477218;249;28469;-65
2022/11/15 04:57:53;;;;;;;2.20;2.10;;;10.10;99.90;;;;;;477275;249;28264;-68
2022/11/15 04:59:54;;;;;;;3.73;2.13;;;10.10;99.90;;;;;;477257;249;28003;-65
2022/11/15 05:01:55;;;;;;;2.30;2.10;;;10.10;99.90;;;;;;477233;249;28127;-66
2022/11/15 05:06:16;;;;;;;2.27;2.07;;;10.10;99.90;;;;;;477252;247;27971;-66
2022/11/15 05:08:17;;;;;;;2.13;1.93;;;10.00;99.90;;;;;;477255;249;27864;-67
2022/11/15 05:10:19;;;;;;;2.23;2.10;;;10.00;99.90;;;;;;477232;249;28112;-65
2022/11/15 05:12:20;;;;;;;2.20;2.00;;;9.90;99.90;;;;;;477237;249;28102;-66
2022/11/15 05:14:21;;;;;;;2.50;2.30;;;9.90;99.90;;;;;;477270;249;28124;-68
2022/11/15 05:16:22;;;;;;;2.20;2.10;;;9.80;99.90;;;;;;477263;249;27968;-65
2022/11/15 05:18:24;;;;;;;2.30;2.10;;;9.80;99.90;;;;;;477239;249;27666;-65
2022/11/15 05:20:25;;;;;;;2.30;2.10;;;9.70;99.90;;;;;;477248;249;28071;-66
2022/11/15 05:22:26;;;;;;;2.07;1.97;;;9.60;99.90;;;;;;477232;249;28050;-66
2022/11/15 05:24:27;;;;;;;2.47;2.30;;;9.60;99.90;;;;;;477254;249;28013;-68
2022/11/15 05:26:29;;;;;;;2.80;2.40;;;9.60;99.90;;;;;;477253;249;28663;-65
2022/11/15 05:28:30;;;;;;;2.27;2.17;;;9.60;99.90;;;;;;477250;249;28587;-67
2022/11/15 05:30:31;;;;;;;2.40;2.20;;;9.50;99.90;;;;;;477215;249;27966;-65
2022/11/15 05:32:32;;;;;;;2.13;2.03;;;9.50;99.90;;;;;;477204;249;28589;-66
2022/11/15 05:34:34;;;;;;;2.30;2.10;;;9.40;99.90;;;;;;477275;249;28458;-69
2022/11/15 05:36:35;;;;;;;2.03;1.93;;;9.40;99.90;;;;;;477244;249;27743;-66
2022/11/15 05:38:36;;;;;;;2.37;2.23;;;9.50;99.90;;;;;;477203;249;27810;-66
2022/11/15 05:40:37;;;;;;;2.30;2.10;;;9.50;99.90;;;;;;477245;249;27877;-65
2022/11/15 05:42:39;;;;;;;2.40;2.20;;;9.50;99.90;;;;;;477255;249;28004;-65
2022/11/15 05:44:40;;;;;;;2.70;2.50;;;9.50;99.90;;;;;;477255;249;28018;-68
2022/11/15 05:46:41;;;;;;;2.03;1.93;;;9.50;99.90;;;;;;477218;249;27496;-65
2022/11/15 05:48:42;;;;;;;2.23;2.13;;;9.50;99.90;;;;;;477241;249;28097;-66
2022/11/15 05:50:44;;;;;;;2.60;2.40;;;9.50;99.90;;;;;;477218;249;28003;-65
2022/11/15 05:52:45;;;;;;;2.60;2.40;;;9.60;99.90;;;;;;477259;249;28071;-65
2022/11/15 05:54:46;;;;;;;2.17;2.00;;;9.60;99.90;;;;;;477256;249;28153;-67
2022/11/15 05:56:47;;;;;;;2.60;2.40;;;9.60;99.90;;;;;;477239;249;27955;-66
2022/11/15 05:58:49;;;;;;;2.73;2.37;;;9.60;99.90;;;;;;477212;249;28132;-65
2022/11/15 06:00:50;;;;;;;2.63;2.43;;;9.50;99.90;;;;;;477226;249;28069;-66
2022/11/15 06:02:51;;;;;;;2.40;2.10;;;9.50;99.90;;;;;;477246;249;27981;-65
2022/11/15 06:04:52;;;;;;;2.60;2.40;;;9.50;99.90;;;;;;477276;249;27893;-68
2022/11/15 06:06:54;;;;;;;2.47;2.27;;;9.50;99.90;;;;;;477274;249;28475;-66
2022/11/15 06:08:55;;;;;;;2.30;2.20;;;9.50;99.90;;;;;;477269;249;28667;-66
2022/11/15 06:10:56;;;;;;;2.10;2.00;;;9.50;99.90;;;;;;477216;249;28712;-65
2022/11/15 06:12:57;;;;;;;2.37;2.27;;;9.40;99.90;;;;;;477272;249;28614;-65
2022/11/15 06:14:59;;;;;;;2.40;2.20;;;9.40;99.90;;;;;;477271;249;28235;-67
2022/11/15 06:17:00;;;;;;;2.27;2.17;;;9.40;99.90;;;;;;477231;249;27848;-66
2022/11/15 06:19:01;;;;;;;2.20;2.10;;;9.40;99.90;;;;;;477226;249;28087;-65
2022/11/15 06:21:02;;;;;;;2.00;1.90;;;9.40;99.90;;;;;;477214;249;27718;-65
2022/11/15 06:23:04;;;;;;;2.37;2.27;;;9.40;99.90;;;;;;477299;249;27972;-66
2022/11/15 06:25:05;;;;;;;2.20;2.10;;;9.40;99.90;;;;;;477291;249;28005;-68
2022/11/15 06:27:06;;;;;;;2.57;2.40;;;9.40;99.90;;;;;;477267;249;27983;-65
2022/11/15 06:29:07;;;;;;;2.20;2.10;;;9.40;99.90;;;;;;477281;249;28154;-66
2022/11/15 06:31:09;;;;;;;2.33;2.00;;;9.40;99.90;;;;;;477250;249;28065;-66
2022/11/15 06:33:10;;;;;;;2.67;2.47;;;9.40;99.90;;;;;;477298;249;28005;-66
2022/11/15 06:35:11;;;;;;;2.17;2.07;;;9.30;99.90;;;;;;477272;249;28048;-67
2022/11/15 06:37:12;;;;;;;2.20;2.10;;;9.30;99.90;;;;;;477265;249;27985;-65
2022/11/15 06:39:14;;;;;;;2.10;2.00;;;9.30;99.90;;;;;;477244;249;27882;-65
2022/11/15 06:41:16;;;;;;;3.90;2.37;;;9.30;99.90;;;;;;477252;249;28395;-66
2022/11/15 06:43:16;;;;;;;2.23;2.07;;;9.30;99.90;;;;;;477204;249;27983;-65
2022/11/15 06:45:17;;;;;;;2.80;2.60;;;9.30;99.90;;;;;;477261;249;28239;-66
2022/11/15 06:47:19;;;;;;;3.30;2.40;;;9.40;99.90;;;;;;477264;249;28499;-66
2022/11/15 06:49:20;;;;;;;1.97;1.87;;;9.40;99.90;;;;;;477233;249;28490;-66
2022/11/15 06:51:21;;;;;;;2.27;2.17;;;9.40;99.90;;;;;;477107;249;29406;-67
2022/11/15 06:53:22;;;;;;;2.60;2.40;;;9.50;99.90;;;;;;477288;249;28442;-66
2022/11/15 06:55:24;;;;;;;2.33;2.23;;;9.40;99.90;;;;;;477266;249;28039;-67
2022/11/15 06:57:25;;;;;;;2.40;2.30;;;9.50;99.90;;;;;;477265;249;28078;-65
2022/11/15 06:59:26;;;;;;;2.20;2.10;;;9.50;99.90;;;;;;477243;249;28011;-66
2022/11/15 07:01:27;;;;;;;2.40;2.30;;;9.50;99.90;;;;;;477242;249;28087;-65
2022/11/15 07:03:28;;;;;;;2.10;2.00;;;9.50;99.90;;;;;;477292;249;27822;-66
2022/11/15 07:05:30;;;;;;;2.00;1.90;;;9.50;99.90;;;;;;477253;249;27947;-68
2022/11/15 07:07:31;;;;;;;2.30;2.20;;;9.50;99.90;;;;;;477254;249;27997;-66
2022/11/15 07:09:32;;;;;;;2.77;2.50;;;9.50;99.90;;;;;;477234;249;27667;-66
2022/11/15 07:11:34;;;;;;;2.13;2.03;;;9.50;99.90;;;;;;477225;249;27981;-65
2022/11/15 07:13:35;;;;;;;2.13;1.90;;;9.50;99.90;;;;;;477277;249;27928;-66
2022/11/15 07:15:36;;;;;;;2.40;2.27;;;9.60;99.90;;;;;;477235;249;28029;-66
2022/11/15 07:17:37;;;;;;;2.13;2.03;;;9.60;99.90;;;;;;477231;249;28125;-66
2022/11/15 07:19:39;;;;;;;2.40;2.30;;;9.60;99.90;;;;;;477226;249;28502;-65
2022/11/15 07:21:40;;;;;;;2.10;2.00;;;9.50;99.90;;;;;;477259;249;28776;-69
2022/11/15 07:23:41;;;;;;;2.53;2.40;;;9.50;99.90;;;;;;477257;249;28397;-65
2022/11/15 07:25:42;;;;;;;2.50;2.30;;;9.50;99.90;;;;;;477238;249;28452;-67
2022/11/15 07:27:44;;;;;;;2.30;1.90;;;9.60;99.90;;;;;;477220;249;28068;-66
2022/11/15 07:29:45;;;;;;;2.50;2.30;;;9.60;99.90;;;;;;477198;249;28722;-66
2022/11/15 07:31:46;;;;;;;3.10;2.40;;;9.60;99.90;;;;;;477202;249;27805;-68
2022/11/15 07:33:47;;;;;;;3.13;2.23;;;9.60;99.90;;;;;;477246;249;28027;-65
2022/11/15 07:35:49;;;;;;;2.03;1.93;;;9.60;99.90;;;;;;477238;249;28085;-66
2022/11/15 07:37:50;;;;;;;2.40;2.30;;;9.60;99.90;;;;;;477233;249;27857;-65
2022/11/15 07:39:51;;;;;;;2.10;2.00;;;9.60;99.90;;;;;;477019;249;28145;-65
2022/11/15 07:42:52;;;;;;;2.00;1.90;;;9.60;99.90;;;;;;477268;249;27887;-68
2022/11/15 07:43:54;;;;;;;1.80;1.70;;;9.60;99.90;;;;;;475650;249;27901;-66
2022/11/15 07:45:55;;;;;;;2.40;2.20;;;9.60;99.90;;;;;;477271;249;28099;-67
2022/11/15 07:47:56;;;;;;;2.10;2.00;;;9.60;99.90;;;;;;477270;249;27987;-65
2022/11/15 07:49:57;;;;;;;2.00;1.90;;;9.60;99.90;;;;;;477264;249;28157;-66
2022/11/15 07:51:59;;;;;;;2.10;2.00;;;9.60;99.90;;;;;;477281;249;28013;-70
2022/11/15 07:54:00;;;;;;;2.63;2.43;;;9.70;99.90;;;;;;477260;249;28079;-66
2022/11/15 07:56:01;;;;;;;2.73;2.53;;;9.70;99.90;;;;;;477257;249;28024;-66
2022/11/15 07:58:02;;;;;;;2.80;2.50;;;9.80;99.90;;;;;;477233;249;28453;-66
2022/11/15 08:00:04;;;;;;;2.37;2.17;;;9.80;99.90;;;;;;477245;249;28570;-66
2022/11/15 08:02:05;;;;;;;2.50;2.30;;;9.80;99.90;;;;;;477308;249;28976;-68
2022/11/15 08:04:06;;;;;;;3.00;2.30;;;9.90;99.90;;;;;;477292;249;28045;-65
2022/11/15 08:06:07;;;;;;;3.10;2.30;;;9.90;99.90;;;;;;477245;249;28387;-66
2022/11/15 08:08:09;;;;;;;2.70;2.50;;;10.00;99.90;;;;;;477228;249;28571;-66
2022/11/15 08:10:11;;;;;;;2.80;2.50;;;10.00;99.90;;;;;;477225;249;27769;-66
2022/11/15 08:12:11;;;;;;;2.23;2.13;;;10.10;99.90;;;;;;477190;249;27682;-68
2022/11/15 08:14:12;;;;;;;2.07;1.97;;;10.10;99.90;;;;;;477244;249;27975;-66
2022/11/15 08:16:14;;;;;;;2.50;2.30;;;10.10;99.90;;;;;;477238;249;27778;-67
2022/11/15 08:18:15;;;;;;;2.60;2.40;;;10.20;99.90;;;;;;477242;249;28120;-65
2022/11/15 08:20:16;;;;;;;4.00;2.30;;;10.20;99.90;;;;;;477227;249;28055;-66
2022/11/15 08:22:17;;;;;;;2.17;2.07;;;10.20;99.90;;;;;;477298;249;28125;-68
2022/11/15 08:24:20;;;;;;;2.20;2.00;;;10.20;99.90;;;;;;477258;249;28172;-65
2022/11/15 08:26:20;;;;;;;2.43;2.00;;;10.30;99.90;;;;;;477180;249;27980;-66
2022/11/15 08:28:21;;;;;;;2.40;2.20;;;10.30;99.90;;;;;;477221;249;28440;-65
2022/11/15 08:30:22;;;;;;;2.03;1.93;;;10.30;99.90;;;;;;477223;249;28152;-68
2022/11/15 08:32:24;;;;;;;2.10;2.00;;;10.40;99.90;;;;;;477281;249;28694;-71
2022/11/15 08:34:25;;;;;;;2.40;2.20;;;10.40;99.90;;;;;;477270;249;27823;-66
2022/11/15 08:36:26;;;;;;;2.30;2.20;;;10.40;99.90;;;;;;477255;249;27766;-67
2022/11/15 08:38:30;;;;;;;2.03;1.93;;;10.50;99.90;;;;;;477237;249;28012;-66
2022/11/15 08:40:29;;;;;;;2.50;2.30;;;10.50;99.90;;;;;;476968;249;27870;-66
2022/11/15 08:42:30;;;;;;;2.70;2.30;;;10.50;99.90;;;;;;477254;249;28005;-68
2022/11/15 08:44:31;;;;;;;2.30;2.17;;;10.60;99.90;;;;;;477262;249;27516;-65
2022/11/15 08:46:32;;;;;;;2.60;2.40;;;10.60;99.90;;;;;;477242;249;27906;-66
2022/11/15 08:48:34;;;;;;;2.13;1.93;;;10.60;99.90;;;;;;477219;249;27973;-66
2022/11/15 08:50:35;;;;;;;3.57;2.53;;;10.70;99.90;;;;;;477212;249;28164;-66
2022/11/15 08:52:36;;;;;;;2.27;2.03;;;10.70;99.90;;;;;;477272;249;28462;-69
2022/11/15 08:54:37;;;;;;;2.10;2.00;;;10.60;99.90;;;;;;477262;249;28457;-66
2022/11/15 08:56:39;;;;;;;2.50;2.30;;;10.70;99.90;;;;;;477213;249;28591;-67
2022/11/15 08:58:40;;;;;;;2.20;2.10;;;10.70;99.90;;;;;;477114;249;28064;-66
2022/11/15 09:00:41;;;;;;;2.00;1.90;;;10.70;99.90;;;;;;477068;249;28011;-67
2022/11/15 09:02:42;;;;;;;2.00;1.90;;;10.80;99.90;;;;;;477015;249;28087;-69
2022/11/15 09:04:44;;;;;;;2.10;2.00;;;10.80;99.90;;;;;;476853;249;28038;-66
2022/11/15 09:06:45;;;;;;;2.67;2.10;;;10.80;99.90;;;;;;477141;249;27910;-66
2022/11/15 09:08:46;;;;;;;2.33;2.13;;;10.90;99.90;;;;;;477049;249;27619;-66
2022/11/15 09:10:47;;;;;;;2.20;2.00;;;10.90;99.90;;;;;;477243;249;27997;-66
2022/11/15 09:12:49;;;;;;;2.60;2.23;;;10.90;99.90;;;;;;477233;249;27869;-67
2022/11/15 09:14:50;;;;;;;2.03;1.93;;;10.90;99.90;;;;;;477155;249;28026;-66
2022/11/15 09:16:51;;;;;;;2.03;1.93;;;10.90;99.90;;;;;;477205;249;28481;-66
2022/11/15 09:18:53;;;;;;;2.20;2.07;;;10.90;99.90;;;;;;477218;249;29306;-66
2022/11/15 09:20:54;;;;;;;2.90;2.23;;;11.00;99.90;;;;;;477268;249;28436;-66
2022/11/15 09:22:55;;;;;;;1.90;1.80;;;11.00;99.90;;;;;;477252;249;28401;-68
2022/11/15 09:24:56;;;;;;;2.40;2.20;;;11.10;99.90;;;;;;477235;249;27967;-66
2022/11/15 09:26:57;;;;;;;2.17;2.03;;;11.10;99.90;;;;;;477198;249;27900;-66
2022/11/15 09:28:59;;;;;;;1.90;1.80;;;11.10;99.90;;;;;;474481;249;47232;-66
2022/11/15 09:31:00;;;;;;;2.00;1.90;;;11.10;99.90;;;;;;477254;249;27496;-66
2022/11/15 09:33:01;;;;;;;2.17;2.00;;;11.20;99.90;;;;;;477231;249;28112;-67
2022/11/15 09:35:02;;;;;;;1.80;1.70;;;11.10;99.90;;;;;;477258;249;27960;-66
2022/11/15 09:37:04;;;;;;;1.90;1.80;;;11.20;99.90;;;;;;477235;249;28018;-66
2022/11/15 09:39:05;;;;;;;2.00;1.90;;;11.20;99.90;;;;;;477216;249;28048;-66
2022/11/15 09:41:06;;;;;;;2.20;2.10;;;11.30;99.90;;;;;;477239;249;28348;-65
2022/11/15 09:43:07;;;;;;;2.27;2.07;;;11.30;99.90;;;;;;477240;249;28377;-67
2022/11/15 09:45:09;;;;;;;2.03;1.93;;;11.30;99.90;;;;;;477241;249;28306;-66
2022/11/15 09:47:10;;;;;;;2.63;2.23;;;11.40;99.90;;;;;;477206;249;28548;-66
2022/11/15 09:49:11;;;;;;;2.10;2.00;;;11.40;99.90;;;;;;477237;249;28016;-66
2022/11/15 09:51:13;;;;;;;2.50;2.30;;;11.50;99.90;;;;;;477292;249;28126;-66
2022/11/15 09:53:14;;;;;;;2.40;2.20;;;11.50;99.90;;;;;;477294;249;28090;-67
2022/11/15 09:55:21;;;;;;;2.30;2.13;;;11.60;99.90;;;;;;477064;249;28095;-66
2022/11/15 09:57:18;;;;;;;3.90;2.33;;;11.60;99.90;;;;;;476840;249;28051;-66
2022/11/15 09:59:18;;;;;;;2.47;2.30;;;11.60;99.90;;;;;;477212;249;28299;-69
2022/11/15 10:01:19;;;;;;;2.23;2.13;;;11.60;99.90;;;;;;477264;249;28114;-66
2022/11/15 10:03:21;;;;;;;3.07;2.30;;;11.60;99.90;;;;;;477282;249;28235;-66
2022/11/15 10:05:21;;;;;;;2.93;2.73;;;11.60;99.90;;;;;;477239;249;28230;-66
2022/11/15 10:07:23;;;;;;;2.53;2.33;;;11.60;99.90;;;;;;477243;249;28825;-66
2022/11/15 10:09:24;;;;;;;2.87;2.67;;;11.60;99.90;;;;;;477291;249;28693;-69
2022/11/15 10:11:25;;;;;;;2.63;2.43;;;11.60;99.90;;;;;;477252;249;28459;-65
2022/11/15 10:13:26;;;;;;;2.30;2.10;;;11.70;99.90;;;;;;477252;249;28156;-67
2022/11/15 10:15:28;;;;;;;2.50;2.30;;;11.80;99.90;;;;;;477221;249;28133;-66
2022/11/15 10:17:29;;;;;;;2.70;2.50;;;11.80;99.90;;;;;;477240;249;28316;-66
2022/11/15 10:19:30;;;;;;;2.63;2.30;;;11.90;99.90;;;;;;477290;249;28017;-69
2022/11/15 10:21:31;;;;;;;2.47;2.27;;;11.90;99.90;;;;;;477254;249;27991;-65
2022/11/15 10:23:33;;;;;;;3.50;2.77;;;12.00;99.90;;;;;;477241;249;28260;-67
2022/11/15 10:25:34;;;;;;;2.70;2.50;;;12.10;99.90;;;;;;477279;249;28185;-69
2022/11/15 10:27:35;;;;;;;2.83;2.50;;;12.20;99.90;;;;;;477281;249;28211;-66
2022/11/15 10:29:37;;;;;;;5.10;2.67;;;12.20;99.90;;;;;;477247;249;28248;-66
2022/11/15 10:31:38;;;;;;;4.50;2.97;;;12.30;99.90;;;;;;477216;249;28122;-66
2022/11/15 10:33:39;;;;;;;4.87;3.03;;;12.40;99.90;;;;;;477238;249;28259;-66
2022/11/15 10:35:42;;;;;;;3.10;2.13;;;12.50;99.90;;;;;;477249;249;28485;-67
2022/11/15 10:37:42;;;;;;;2.83;2.30;;;12.50;99.90;;;;;;477179;249;28101;-66
2022/11/15 10:39:43;;;;;;;3.90;2.03;;;12.50;99.90;;;;;;477230;249;28824;-66
2022/11/15 10:41:45;;;;;;;4.37;2.60;;;12.50;99.90;;;;;;477231;249;28997;-69
2022/11/15 10:43:46;;;;;;;2.40;2.20;;;12.50;99.90;;;;;;477216;249;28977;-66